sensor_id;sensor_type;location;lat;lon;timestamp;P1;durP1;ratioP1;P2;durP2;ratioP2
26718;SDS011;14326;50.794;6.060;2023-05-19T00:00:59;16.02;;;5.00;;
26718;SDS011;14326;50.794;6.060;2023-05-19T00:03:59;16.95;;;4.60;;
26718;SDS011;14326;50.794;6.060;2023-05-19T00:06:40;15.15;;;4.85;;
26718;SDS011;14326;50.794;6.060;2023-05-19T00:09:17;15.98;;;4.68;;
26718;SDS011;14326;50.794;6.060;2023-05-19T00:11:46;16.98;;;4.70;;
26718;SDS011;14326;50.794;6.060;2023-05-19T00:14:22;13.75;;;4.85;;
26718;SDS011;14326;50.794;6.060;2023-05-19T00:17:19;18.83;;;5.35;;
26718;SDS011;14326;50.794;6.060;2023-05-19T00:20:29;16.55;;;5.05;;
26718;SDS011;14326;50.794;6.060;2023-05-19T00:23:31;17.75;;;5.78;;
26718;SDS011;14326;50.794;6.060;2023-05-19T00:26:35;15.98;;;5.20;;
26718;SDS011;14326;50.794;6.060;2023-05-19T00:29:16;16.70;;;5.20;;
26718;SDS011;14326;50.794;6.060;2023-05-19T00:31:44;16.27;;;5.22;;
26718;SDS011;14326;50.794;6.060;2023-05-19T00:34:11;17.17;;;5.10;;
26718;SDS011;14326;50.794;6.060;2023-05-19T00:36:47;21.00;;;6.00;;
26718;SDS011;14326;50.794;6.060;2023-05-19T00:40:06;16.52;;;5.15;;
26718;SDS011;14326;50.794;6.060;2023-05-19T00:42:35;15.02;;;5.60;;
26718;SDS011;14326;50.794;6.060;2023-05-19T00:45:04;14.40;;;5.07;;
26718;SDS011;14326;50.794;6.060;2023-05-19T00:47:51;18.10;;;5.60;;
26718;SDS011;14326;50.794;6.060;2023-05-19T00:50:22;14.98;;;5.35;;
26718;SDS011;14326;50.794;6.060;2023-05-19T00:56:02;17.55;;;5.32;;
26718;SDS011;14326;50.794;6.060;2023-05-19T00:58:52;14.82;;;4.75;;
26718;SDS011;14326;50.794;6.060;2023-05-19T01:01:22;20.00;;;5.53;;
26718;SDS011;14326;50.794;6.060;2023-05-19T01:04:08;17.42;;;5.25;;
26718;SDS011;14326;50.794;6.060;2023-05-19T01:06:41;14.60;;;5.40;;
26718;SDS011;14326;50.794;6.060;2023-05-19T01:09:29;18.63;;;5.18;;
26718;SDS011;14326;50.794;6.060;2023-05-19T01:11:57;16.20;;;5.25;;
26718;SDS011;14326;50.794;6.060;2023-05-19T01:14:24;18.92;;;5.22;;
26718;SDS011;14326;50.794;6.060;2023-05-19T01:16:53;16.38;;;5.15;;
26718;SDS011;14326;50.794;6.060;2023-05-19T01:19:34;18.10;;;5.40;;
26718;SDS011;14326;50.794;6.060;2023-05-19T01:29:10;18.35;;;6.07;;
26718;SDS011;14326;50.794;6.060;2023-05-19T01:31:53;15.70;;;5.13;;
26718;SDS011;14326;50.794;6.060;2023-05-19T01:34:26;12.52;;;5.10;;
26718;SDS011;14326;50.794;6.060;2023-05-19T01:36:55;18.10;;;5.07;;
26718;SDS011;14326;50.794;6.060;2023-05-19T01:39:37;18.40;;;5.43;;
26718;SDS011;14326;50.794;6.060;2023-05-19T01:42:20;16.63;;;5.43;;
26718;SDS011;14326;50.794;6.060;2023-05-19T01:44:51;17.85;;;5.32;;
26718;SDS011;14326;50.794;6.060;2023-05-19T01:47:42;20.52;;;5.60;;
26718;SDS011;14326;50.794;6.060;2023-05-19T01:51:02;15.43;;;5.07;;
26718;SDS011;14326;50.794;6.060;2023-05-19T01:56:45;15.32;;;5.75;;
26718;SDS011;14326;50.794;6.060;2023-05-19T01:59:27;19.60;;;5.80;;
26718;SDS011;14326;50.794;6.060;2023-05-19T02:02:21;16.77;;;5.80;;
26718;SDS011;14326;50.794;6.060;2023-05-19T02:05:17;16.83;;;5.70;;
26718;SDS011;14326;50.794;6.060;2023-05-19T02:07:55;15.93;;;6.30;;
26718;SDS011;14326;50.794;6.060;2023-05-19T02:10:42;15.25;;;5.53;;
26718;SDS011;14326;50.794;6.060;2023-05-19T02:13:15;16.55;;;5.28;;
26718;SDS011;14326;50.794;6.060;2023-05-19T02:16:02;16.42;;;6.07;;
26718;SDS011;14326;50.794;6.060;2023-05-19T02:18:46;22.38;;;6.03;;
26718;SDS011;14326;50.794;6.060;2023-05-19T02:24:38;20.25;;;5.65;;
26718;SDS011;14326;50.794;6.060;2023-05-19T02:27:18;18.40;;;6.15;;
26718;SDS011;14326;50.794;6.060;2023-05-19T02:29:58;15.13;;;5.85;;
26718;SDS011;14326;50.794;6.060;2023-05-19T02:32:49;19.92;;;6.03;;
26718;SDS011;14326;50.794;6.060;2023-05-19T02:35:32;18.60;;;5.78;;
26718;SDS011;14326;50.794;6.060;2023-05-19T02:38:18;14.57;;;5.78;;
26718;SDS011;14326;50.794;6.060;2023-05-19T02:41:06;17.60;;;5.72;;
26718;SDS011;14326;50.794;6.060;2023-05-19T02:43:37;14.43;;;4.55;;
26718;SDS011;14326;50.794;6.060;2023-05-19T02:46:12;17.50;;;5.78;;
26718;SDS011;14326;50.794;6.060;2023-05-19T02:49:03;20.52;;;6.10;;
26718;SDS011;14326;50.794;6.060;2023-05-19T02:51:33;16.20;;;5.80;;
26718;SDS011;14326;50.794;6.060;2023-05-19T02:54:04;19.08;;;6.07;;
26718;SDS011;14326;50.794;6.060;2023-05-19T02:59:33;16.35;;;5.82;;
26718;SDS011;14326;50.794;6.060;2023-05-19T03:04:56;17.88;;;5.38;;
26718;SDS011;14326;50.794;6.060;2023-05-19T03:07:38;20.63;;;6.47;;
26718;SDS011;14326;50.794;6.060;2023-05-19T03:10:27;17.63;;;5.80;;
26718;SDS011;14326;50.794;6.060;2023-05-19T03:12:59;17.35;;;6.30;;
26718;SDS011;14326;50.794;6.060;2023-05-19T03:15:38;15.73;;;5.75;;
26718;SDS011;14326;50.794;6.060;2023-05-19T03:18:28;17.33;;;6.60;;
26718;SDS011;14326;50.794;6.060;2023-05-19T03:21:13;17.80;;;6.68;;
26718;SDS011;14326;50.794;6.060;2023-05-19T03:23:54;17.58;;;6.22;;
26718;SDS011;14326;50.794;6.060;2023-05-19T03:26:28;19.17;;;6.22;;
26718;SDS011;14326;50.794;6.060;2023-05-19T03:29:06;16.23;;;6.25;;
26718;SDS011;14326;50.794;6.060;2023-05-19T03:31:37;14.93;;;4.73;;
26718;SDS011;14326;50.794;6.060;2023-05-19T03:34:16;16.73;;;5.60;;
26718;SDS011;14326;50.794;6.060;2023-05-19T03:36:43;17.90;;;6.10;;
26718;SDS011;14326;50.794;6.060;2023-05-19T03:39:14;18.65;;;6.80;;
26718;SDS011;14326;50.794;6.060;2023-05-19T03:41:42;16.77;;;6.28;;
26718;SDS011;14326;50.794;6.060;2023-05-19T03:44:08;21.60;;;6.80;;
26718;SDS011;14326;50.794;6.060;2023-05-19T03:46:43;18.40;;;6.60;;
26718;SDS011;14326;50.794;6.060;2023-05-19T03:49:10;18.90;;;6.20;;
26718;SDS011;14326;50.794;6.060;2023-05-19T03:51:39;17.65;;;6.70;;
26718;SDS011;14326;50.794;6.060;2023-05-19T03:54:07;21.65;;;6.82;;
26718;SDS011;14326;50.794;6.060;2023-05-19T03:56:42;19.50;;;7.10;;
26718;SDS011;14326;50.794;6.060;2023-05-19T03:59:10;19.40;;;6.45;;
26718;SDS011;14326;50.794;6.060;2023-05-19T04:04:34;16.13;;;6.25;;
26718;SDS011;14326;50.794;6.060;2023-05-19T04:07:07;21.20;;;6.85;;
26718;SDS011;14326;50.794;6.060;2023-05-19T04:09:33;18.52;;;6.72;;
26718;SDS011;14326;50.794;6.060;2023-05-19T04:12:03;16.52;;;6.35;;
26718;SDS011;14326;50.794;6.060;2023-05-19T04:14:33;20.35;;;7.38;;
26718;SDS011;14326;50.794;6.060;2023-05-19T04:17:00;18.60;;;6.70;;
26718;SDS011;14326;50.794;6.060;2023-05-19T04:19:36;20.42;;;7.13;;
26718;SDS011;14326;50.794;6.060;2023-05-19T04:25:27;19.35;;;7.30;;
26718;SDS011;14326;50.794;6.060;2023-05-19T04:27:55;19.30;;;6.67;;
26718;SDS011;14326;50.794;6.060;2023-05-19T04:30:22;20.45;;;7.40;;
26718;SDS011;14326;50.794;6.060;2023-05-19T04:32:49;17.67;;;6.65;;
26718;SDS011;14326;50.794;6.060;2023-05-19T04:35:16;18.50;;;7.20;;
26718;SDS011;14326;50.794;6.060;2023-05-19T04:37:43;19.88;;;7.10;;
26718;SDS011;14326;50.794;6.060;2023-05-19T04:40:11;20.40;;;7.50;;
26718;SDS011;14326;50.794;6.060;2023-05-19T04:42:37;19.98;;;7.03;;
26718;SDS011;14326;50.794;6.060;2023-05-19T04:45:08;20.70;;;7.53;;
26718;SDS011;14326;50.794;6.060;2023-05-19T04:47:42;20.10;;;7.75;;
26718;SDS011;14326;50.794;6.060;2023-05-19T04:50:10;22.20;;;8.07;;
26718;SDS011;14326;50.794;6.060;2023-05-19T04:52:38;21.60;;;7.28;;
26718;SDS011;14326;50.794;6.060;2023-05-19T04:55:05;21.65;;;7.63;;
26718;SDS011;14326;50.794;6.060;2023-05-19T04:57:35;15.38;;;5.60;;
26718;SDS011;14326;50.794;6.060;2023-05-19T05:00:04;22.95;;;8.52;;
26718;SDS011;14326;50.794;6.060;2023-05-19T05:02:37;18.45;;;7.18;;
26718;SDS011;14326;50.794;6.060;2023-05-19T05:05:07;19.42;;;7.28;;
26718;SDS011;14326;50.794;6.060;2023-05-19T05:07:34;18.73;;;7.68;;
26718;SDS011;14326;50.794;6.060;2023-05-19T05:10:01;21.50;;;8.05;;
26718;SDS011;14326;50.794;6.060;2023-05-19T05:12:28;19.05;;;7.65;;
26718;SDS011;14326;50.794;6.060;2023-05-19T05:14:55;20.50;;;8.13;;
26718;SDS011;14326;50.794;6.060;2023-05-19T05:17:22;22.55;;;8.35;;
26718;SDS011;14326;50.794;6.060;2023-05-19T05:19:51;19.58;;;7.38;;
26718;SDS011;14326;50.794;6.060;2023-05-19T05:22:18;20.25;;;7.80;;
26718;SDS011;14326;50.794;6.060;2023-05-19T05:24:45;20.05;;;7.10;;
26718;SDS011;14326;50.794;6.060;2023-05-19T05:27:12;29.40;;;7.90;;
26718;SDS011;14326;50.794;6.060;2023-05-19T05:29:39;21.98;;;7.78;;
26718;SDS011;14326;50.794;6.060;2023-05-19T05:32:05;21.25;;;8.00;;
26718;SDS011;14326;50.794;6.060;2023-05-19T05:34:32;21.10;;;7.47;;
26718;SDS011;14326;50.794;6.060;2023-05-19T05:37:01;21.50;;;7.25;;
26718;SDS011;14326;50.794;6.060;2023-05-19T05:39:27;22.52;;;7.72;;
26718;SDS011;14326;50.794;6.060;2023-05-19T05:41:55;27.85;;;8.68;;
26718;SDS011;14326;50.794;6.060;2023-05-19T05:44:22;23.92;;;9.60;;
26718;SDS011;14326;50.794;6.060;2023-05-19T05:46:49;23.02;;;7.40;;
26718;SDS011;14326;50.794;6.060;2023-05-19T05:49:16;23.55;;;8.57;;
26718;SDS011;14326;50.794;6.060;2023-05-19T05:51:45;17.55;;;5.72;;
26718;SDS011;14326;50.794;6.060;2023-05-19T05:54:14;20.98;;;8.45;;
26718;SDS011;14326;50.794;6.060;2023-05-19T05:57:07;20.40;;;7.93;;
26718;SDS011;14326;50.794;6.060;2023-05-19T05:59:37;22.73;;;7.68;;
26718;SDS011;14326;50.794;6.060;2023-05-19T06:02:11;19.23;;;6.68;;
26718;SDS011;14326;50.794;6.060;2023-05-19T06:04:43;23.25;;;7.75;;
26718;SDS011;14326;50.794;6.060;2023-05-19T06:07:21;23.42;;;7.72;;
26718;SDS011;14326;50.794;6.060;2023-05-19T06:09:49;23.13;;;7.25;;
26718;SDS011;14326;50.794;6.060;2023-05-19T06:12:29;20.90;;;7.80;;
26718;SDS011;14326;50.794;6.060;2023-05-19T06:15:01;24.40;;;7.57;;
26718;SDS011;14326;50.794;6.060;2023-05-19T06:17:36;19.73;;;7.22;;
26718;SDS011;14326;50.794;6.060;2023-05-19T06:20:12;20.40;;;7.50;;
26718;SDS011;14326;50.794;6.060;2023-05-19T06:22:41;25.25;;;7.53;;
26718;SDS011;14326;50.794;6.060;2023-05-19T06:25:14;22.90;;;7.28;;
26718;SDS011;14326;50.794;6.060;2023-05-19T06:27:40;23.33;;;8.23;;
26718;SDS011;14326;50.794;6.060;2023-05-19T06:30:07;21.65;;;7.97;;
26718;SDS011;14326;50.794;6.060;2023-05-19T06:33:04;21.88;;;6.60;;
26718;SDS011;14326;50.794;6.060;2023-05-19T06:35:31;21.85;;;6.40;;
26718;SDS011;14326;50.794;6.060;2023-05-19T06:37:58;20.45;;;6.78;;
26718;SDS011;14326;50.794;6.060;2023-05-19T06:40:29;17.55;;;6.53;;
26718;SDS011;14326;50.794;6.060;2023-05-19T06:42:55;22.58;;;5.60;;
26718;SDS011;14326;50.794;6.060;2023-05-19T06:45:22;20.85;;;6.15;;
26718;SDS011;14326;50.794;6.060;2023-05-19T06:48:10;20.00;;;6.00;;
26718;SDS011;14326;50.794;6.060;2023-05-19T06:50:37;16.67;;;5.78;;
26718;SDS011;14326;50.794;6.060;2023-05-19T06:53:03;21.88;;;5.88;;
26718;SDS011;14326;50.794;6.060;2023-05-19T06:55:33;22.35;;;6.13;;
26718;SDS011;14326;50.794;6.060;2023-05-19T06:58:00;16.58;;;5.10;;
26718;SDS011;14326;50.794;6.060;2023-05-19T07:00:27;17.65;;;4.90;;
26718;SDS011;14326;50.794;6.060;2023-05-19T07:02:53;18.02;;;4.82;;
26718;SDS011;14326;50.794;6.060;2023-05-19T07:05:29;20.60;;;4.57;;
26718;SDS011;14326;50.794;6.060;2023-05-19T07:08:05;21.00;;;4.72;;
26718;SDS011;14326;50.794;6.060;2023-05-19T07:10:33;16.58;;;4.07;;
26718;SDS011;14326;50.794;6.060;2023-05-19T07:13:09;17.90;;;4.75;;
26718;SDS011;14326;50.794;6.060;2023-05-19T07:15:55;17.80;;;4.00;;
26718;SDS011;14326;50.794;6.060;2023-05-19T07:18:38;14.90;;;3.90;;
26718;SDS011;14326;50.794;6.060;2023-05-19T07:21:07;15.90;;;4.07;;
26718;SDS011;14326;50.794;6.060;2023-05-19T07:23:37;16.17;;;3.60;;
26718;SDS011;14326;50.794;6.060;2023-05-19T07:26:20;13.27;;;3.97;;
26718;SDS011;14326;50.794;6.060;2023-05-19T07:29:15;14.57;;;3.50;;
26718;SDS011;14326;50.794;6.060;2023-05-19T07:31:47;15.65;;;3.45;;
26718;SDS011;14326;50.794;6.060;2023-05-19T07:34:24;17.10;;;4.00;;
26718;SDS011;14326;50.794;6.060;2023-05-19T07:37:36;14.73;;;3.65;;
26718;SDS011;14326;50.794;6.060;2023-05-19T07:40:09;14.82;;;3.90;;
26718;SDS011;14326;50.794;6.060;2023-05-19T07:48:35;14.32;;;3.15;;
26718;SDS011;14326;50.794;6.060;2023-05-19T07:51:21;16.63;;;3.65;;
26718;SDS011;14326;50.794;6.060;2023-05-19T07:53:48;13.50;;;3.40;;
26718;SDS011;14326;50.794;6.060;2023-05-19T07:56:15;19.17;;;4.57;;
26718;SDS011;14326;50.794;6.060;2023-05-19T07:58:44;15.15;;;3.90;;
26718;SDS011;14326;50.794;6.060;2023-05-19T08:01:10;19.90;;;4.18;;
26718;SDS011;14326;50.794;6.060;2023-05-19T08:03:38;17.38;;;3.72;;
26718;SDS011;14326;50.794;6.060;2023-05-19T08:06:13;13.73;;;3.80;;
26718;SDS011;14326;50.794;6.060;2023-05-19T08:08:55;20.70;;;4.50;;
26718;SDS011;14326;50.794;6.060;2023-05-19T08:11:27;17.83;;;4.30;;
26718;SDS011;14326;50.794;6.060;2023-05-19T08:14:08;18.88;;;3.25;;
26718;SDS011;14326;50.794;6.060;2023-05-19T08:20:01;17.20;;;3.40;;
26718;SDS011;14326;50.794;6.060;2023-05-19T08:25:52;17.40;;;3.63;;
26718;SDS011;14326;50.794;6.060;2023-05-19T08:28:23;13.88;;;3.55;;
26718;SDS011;14326;50.794;6.060;2023-05-19T08:31:00;14.95;;;3.92;;
26718;SDS011;14326;50.794;6.060;2023-05-19T08:33:39;14.88;;;3.47;;
26718;SDS011;14326;50.794;6.060;2023-05-19T08:36:26;17.48;;;4.22;;
26718;SDS011;14326;50.794;6.060;2023-05-19T08:39:22;18.40;;;3.20;;
26718;SDS011;14326;50.794;6.060;2023-05-19T08:41:58;15.00;;;3.35;;
26718;SDS011;14326;50.794;6.060;2023-05-19T08:44:29;16.88;;;3.50;;
26718;SDS011;14326;50.794;6.060;2023-05-19T08:47:06;18.13;;;3.58;;
26718;SDS011;14326;50.794;6.060;2023-05-19T08:52:50;13.48;;;4.07;;
26718;SDS011;14326;50.794;6.060;2023-05-19T08:55:35;16.83;;;3.30;;
26718;SDS011;14326;50.794;6.060;2023-05-19T08:58:36;19.30;;;3.60;;
26718;SDS011;14326;50.794;6.060;2023-05-19T09:01:22;12.50;;;3.35;;
26718;SDS011;14326;50.794;6.060;2023-05-19T09:04:10;16.13;;;3.53;;
26718;SDS011;14326;50.794;6.060;2023-05-19T09:06:37;17.75;;;4.00;;
26718;SDS011;14326;50.794;6.060;2023-05-19T09:09:19;16.08;;;3.70;;
26718;SDS011;14326;50.794;6.060;2023-05-19T09:11:55;16.33;;;3.63;;
26718;SDS011;14326;50.794;6.060;2023-05-19T09:14:55;15.02;;;3.25;;
26718;SDS011;14326;50.794;6.060;2023-05-19T09:17:22;22.90;;;4.30;;
26718;SDS011;14326;50.794;6.060;2023-05-19T09:22:45;21.10;;;3.42;;
26718;SDS011;14326;50.794;6.060;2023-05-19T09:25:34;17.35;;;3.17;;
26718;SDS011;14326;50.794;6.060;2023-05-19T09:28:06;15.82;;;3.30;;
26718;SDS011;14326;50.794;6.060;2023-05-19T09:33:43;15.75;;;3.55;;
26718;SDS011;14326;50.794;6.060;2023-05-19T09:36:11;18.33;;;3.28;;
26718;SDS011;14326;50.794;6.060;2023-05-19T09:38:44;12.07;;;2.97;;
26718;SDS011;14326;50.794;6.060;2023-05-19T09:41:32;15.25;;;3.45;;
26718;SDS011;14326;50.794;6.060;2023-05-19T09:44:04;12.77;;;3.30;;
26718;SDS011;14326;50.794;6.060;2023-05-19T09:47:03;15.48;;;3.33;;
26718;SDS011;14326;50.794;6.060;2023-05-19T09:49:58;14.45;;;3.40;;
26718;SDS011;14326;50.794;6.060;2023-05-19T09:55:17;19.25;;;3.60;;
26718;SDS011;14326;50.794;6.060;2023-05-19T09:57:47;14.90;;;3.40;;
26718;SDS011;14326;50.794;6.060;2023-05-19T10:00:32;15.27;;;3.22;;
26718;SDS011;14326;50.794;6.060;2023-05-19T10:03:12;12.30;;;3.05;;
26718;SDS011;14326;50.794;6.060;2023-05-19T10:05:46;17.20;;;3.25;;
26718;SDS011;14326;50.794;6.060;2023-05-19T10:11:12;13.68;;;3.38;;
26718;SDS011;14326;50.794;6.060;2023-05-19T10:15:45;15.43;;;3.00;;
26718;SDS011;14326;50.794;6.060;2023-05-19T10:16:58;19.63;;;4.13;;
26718;SDS011;14326;50.794;6.060;2023-05-19T10:23:02;14.38;;;2.65;;
26718;SDS011;14326;50.794;6.060;2023-05-19T10:28:44;13.40;;;2.88;;
26718;SDS011;14326;50.794;6.060;2023-05-19T10:31:20;15.15;;;3.30;;
26718;SDS011;14326;50.794;6.060;2023-05-19T10:34:11;17.23;;;3.13;;
26718;SDS011;14326;50.794;6.060;2023-05-19T10:36:53;16.15;;;3.35;;
26718;SDS011;14326;50.794;6.060;2023-05-19T10:40:04;15.07;;;3.10;;
26718;SDS011;14326;50.794;6.060;2023-05-19T10:43:05;18.70;;;3.25;;
26718;SDS011;14326;50.794;6.060;2023-05-19T10:49:07;17.60;;;3.28;;
26718;SDS011;14326;50.794;6.060;2023-05-19T10:51:33;10.23;;;2.67;;
26718;SDS011;14326;50.794;6.060;2023-05-19T10:54:13;12.13;;;3.00;;
26718;SDS011;14326;50.794;6.060;2023-05-19T10:56:55;12.23;;;2.65;;
26718;SDS011;14326;50.794;6.060;2023-05-19T10:59:32;15.20;;;3.70;;
26718;SDS011;14326;50.794;6.060;2023-05-19T11:02:11;12.48;;;2.97;;
26718;SDS011;14326;50.794;6.060;2023-05-19T11:05:07;12.98;;;2.78;;
26718;SDS011;14326;50.794;6.060;2023-05-19T11:07:34;13.25;;;3.00;;
26718;SDS011;14326;50.794;6.060;2023-05-19T11:10:05;12.13;;;2.85;;
26718;SDS011;14326;50.794;6.060;2023-05-19T11:12:45;14.85;;;2.72;;
26718;SDS011;14326;50.794;6.060;2023-05-19T11:15:23;15.68;;;3.33;;
26718;SDS011;14326;50.794;6.060;2023-05-19T11:24:43;11.25;;;2.83;;
26718;SDS011;14326;50.794;6.060;2023-05-19T11:30:01;14.50;;;2.75;;
26718;SDS011;14326;50.794;6.060;2023-05-19T11:32:47;13.95;;;2.75;;
26718;SDS011;14326;50.794;6.060;2023-05-19T11:35:23;13.18;;;2.78;;
26718;SDS011;14326;50.794;6.060;2023-05-19T11:41:37;11.95;;;2.67;;
26718;SDS011;14326;50.794;6.060;2023-05-19T11:44:10;17.00;;;3.67;;
26718;SDS011;14326;50.794;6.060;2023-05-19T11:46:50;15.80;;;3.47;;
26718;SDS011;14326;50.794;6.060;2023-05-19T11:49:26;13.32;;;2.78;;
26718;SDS011;14326;50.794;6.060;2023-05-19T11:52:41;14.45;;;3.50;;
26718;SDS011;14326;50.794;6.060;2023-05-19T11:55:14;6.90;;;2.00;;
26718;SDS011;14326;50.794;6.060;2023-05-19T11:58:03;14.82;;;2.72;;
26718;SDS011;14326;50.794;6.060;2023-05-19T12:00:33;16.08;;;2.83;;
26718;SDS011;14326;50.794;6.060;2023-05-19T12:03:02;19.02;;;2.45;;
26718;SDS011;14326;50.794;6.060;2023-05-19T12:08:45;9.63;;;2.55;;
26718;SDS011;14326;50.794;6.060;2023-05-19T12:11:11;11.68;;;2.83;;
26718;SDS011;14326;50.794;6.060;2023-05-19T12:13:39;12.07;;;2.78;;
26718;SDS011;14326;50.794;6.060;2023-05-19T12:16:07;13.60;;;2.58;;
26718;SDS011;14326;50.794;6.060;2023-05-19T12:18:35;9.70;;;2.35;;
26718;SDS011;14326;50.794;6.060;2023-05-19T12:21:02;13.52;;;3.40;;
26718;SDS011;14326;50.794;6.060;2023-05-19T12:23:43;12.55;;;2.92;;
26718;SDS011;14326;50.794;6.060;2023-05-19T12:26:22;9.13;;;2.25;;
26718;SDS011;14326;50.794;6.060;2023-05-19T12:29:13;14.50;;;2.85;;
26718;SDS011;14326;50.794;6.060;2023-05-19T12:32:09;14.57;;;2.88;;
26718;SDS011;14326;50.794;6.060;2023-05-19T12:34:37;12.60;;;2.78;;
26718;SDS011;14326;50.794;6.060;2023-05-19T12:37:06;12.23;;;2.67;;
26718;SDS011;14326;50.794;6.060;2023-05-19T12:39:40;12.60;;;2.55;;
26718;SDS011;14326;50.794;6.060;2023-05-19T12:42:08;10.48;;;2.92;;
26718;SDS011;14326;50.794;6.060;2023-05-19T12:44:35;12.48;;;2.75;;
26718;SDS011;14326;50.794;6.060;2023-05-19T12:47:06;14.45;;;2.72;;
26718;SDS011;14326;50.794;6.060;2023-05-19T12:49:55;12.15;;;2.85;;
26718;SDS011;14326;50.794;6.060;2023-05-19T12:58:08;11.98;;;2.90;;
26718;SDS011;14326;50.794;6.060;2023-05-19T13:00:41;10.40;;;2.60;;
26718;SDS011;14326;50.794;6.060;2023-05-19T13:03:14;15.93;;;2.90;;
26718;SDS011;14326;50.794;6.060;2023-05-19T13:05:51;12.88;;;2.80;;
26718;SDS011;14326;50.794;6.060;2023-05-19T13:10:40;13.32;;;3.20;;
26718;SDS011;14326;50.794;6.060;2023-05-19T13:13:55;18.67;;;4.90;;
26718;SDS011;14326;50.794;6.060;2023-05-19T13:16:55;11.70;;;2.53;;
26718;SDS011;14326;50.794;6.060;2023-05-19T13:19:43;17.60;;;3.55;;
26718;SDS011;14326;50.794;6.060;2023-05-19T13:25:25;11.68;;;3.38;;
26718;SDS011;14326;50.794;6.060;2023-05-19T13:28:08;13.43;;;2.78;;
26718;SDS011;14326;50.794;6.060;2023-05-19T13:33:50;11.35;;;2.60;;
26718;SDS011;14326;50.794;6.060;2023-05-19T13:36:41;11.15;;;2.42;;
26718;SDS011;14326;50.794;6.060;2023-05-19T13:39:12;13.63;;;2.75;;
26718;SDS011;14326;50.794;6.060;2023-05-19T13:41:40;16.60;;;3.17;;
26718;SDS011;14326;50.794;6.060;2023-05-19T13:44:22;13.85;;;3.00;;
26718;SDS011;14326;50.794;6.060;2023-05-19T13:47:11;15.48;;;3.20;;
26718;SDS011;14326;50.794;6.060;2023-05-19T13:49:41;12.80;;;2.53;;
26718;SDS011;14326;50.794;6.060;2023-05-19T13:52:09;10.00;;;2.60;;
26718;SDS011;14326;50.794;6.060;2023-05-19T13:54:56;14.40;;;2.63;;
26718;SDS011;14326;50.794;6.060;2023-05-19T13:57:27;14.75;;;3.15;;
26718;SDS011;14326;50.794;6.060;2023-05-19T13:59:54;12.82;;;2.80;;
26718;SDS011;14326;50.794;6.060;2023-05-19T14:02:22;13.80;;;2.67;;
26718;SDS011;14326;50.794;6.060;2023-05-19T14:04:53;17.75;;;3.13;;
26718;SDS011;14326;50.794;6.060;2023-05-19T14:07:48;18.75;;;3.15;;
26718;SDS011;14326;50.794;6.060;2023-05-19T14:10:15;23.55;;;3.08;;
26718;SDS011;14326;50.794;6.060;2023-05-19T14:12:48;11.38;;;2.63;;
26718;SDS011;14326;50.794;6.060;2023-05-19T14:15:14;16.40;;;2.50;;
26718;SDS011;14326;50.794;6.060;2023-05-19T14:17:42;13.00;;;2.75;;
26718;SDS011;14326;50.794;6.060;2023-05-19T14:20:09;16.40;;;3.17;;
26718;SDS011;14326;50.794;6.060;2023-05-19T14:22:41;11.27;;;2.42;;
26718;SDS011;14326;50.794;6.060;2023-05-19T14:25:08;10.68;;;2.47;;
26718;SDS011;14326;50.794;6.060;2023-05-19T14:27:40;12.68;;;2.70;;
26718;SDS011;14326;50.794;6.060;2023-05-19T14:30:24;13.45;;;1.95;;
26718;SDS011;14326;50.794;6.060;2023-05-19T14:32:52;12.18;;;2.95;;
26718;SDS011;14326;50.794;6.060;2023-05-19T14:35:27;15.88;;;3.47;;
26718;SDS011;14326;50.794;6.060;2023-05-19T14:38:03;10.95;;;2.70;;
26718;SDS011;14326;50.794;6.060;2023-05-19T14:40:30;17.25;;;2.85;;
26718;SDS011;14326;50.794;6.060;2023-05-19T14:45:53;12.88;;;2.50;;
26718;SDS011;14326;50.794;6.060;2023-05-19T14:48:38;12.43;;;2.60;;
26718;SDS011;14326;50.794;6.060;2023-05-19T14:51:05;10.35;;;2.60;;
26718;SDS011;14326;50.794;6.060;2023-05-19T14:53:31;10.65;;;2.53;;
26718;SDS011;14326;50.794;6.060;2023-05-19T14:56:00;16.40;;;3.85;;
26718;SDS011;14326;50.794;6.060;2023-05-19T15:01:31;15.23;;;3.25;;
26718;SDS011;14326;50.794;6.060;2023-05-19T15:04:00;14.40;;;2.85;;
26718;SDS011;14326;50.794;6.060;2023-05-19T15:06:40;14.27;;;2.65;;
26718;SDS011;14326;50.794;6.060;2023-05-19T15:09:07;9.90;;;2.67;;
26718;SDS011;14326;50.794;6.060;2023-05-19T15:11:34;13.80;;;2.97;;
26718;SDS011;14326;50.794;6.060;2023-05-19T15:14:08;12.32;;;2.80;;
26718;SDS011;14326;50.794;6.060;2023-05-19T15:19:49;14.10;;;3.50;;
26718;SDS011;14326;50.794;6.060;2023-05-19T15:22:16;13.38;;;2.75;;
26718;SDS011;14326;50.794;6.060;2023-05-19T15:24:54;14.40;;;2.75;;
26718;SDS011;14326;50.794;6.060;2023-05-19T15:27:21;13.20;;;2.75;;
26718;SDS011;14326;50.794;6.060;2023-05-19T15:29:57;15.68;;;3.00;;
26718;SDS011;14326;50.794;6.060;2023-05-19T15:32:39;13.73;;;2.78;;
26718;SDS011;14326;50.794;6.060;2023-05-19T15:35:36;14.52;;;2.75;;
26718;SDS011;14326;50.794;6.060;2023-05-19T15:38:22;10.10;;;2.50;;
26718;SDS011;14326;50.794;6.060;2023-05-19T15:40:48;16.50;;;2.78;;
26718;SDS011;14326;50.794;6.060;2023-05-19T15:43:22;13.00;;;2.67;;
26718;SDS011;14326;50.794;6.060;2023-05-19T15:46:10;12.23;;;2.88;;
26718;SDS011;14326;50.794;6.060;2023-05-19T15:48:49;15.93;;;2.67;;
26718;SDS011;14326;50.794;6.060;2023-05-19T15:51:18;14.63;;;2.53;;
26718;SDS011;14326;50.794;6.060;2023-05-19T15:54:04;16.90;;;3.33;;
26718;SDS011;14326;50.794;6.060;2023-05-19T15:56:30;13.50;;;3.00;;
26718;SDS011;14326;50.794;6.060;2023-05-19T15:58:57;12.07;;;2.92;;
26718;SDS011;14326;50.794;6.060;2023-05-19T16:01:23;17.13;;;3.45;;
26718;SDS011;14326;50.794;6.060;2023-05-19T16:03:50;21.58;;;5.00;;
26718;SDS011;14326;50.794;6.060;2023-05-19T16:06:31;11.98;;;2.92;;
26718;SDS011;14326;50.794;6.060;2023-05-19T16:09:27;14.82;;;2.88;;
26718;SDS011;14326;50.794;6.060;2023-05-19T16:12:19;14.43;;;3.00;;
26718;SDS011;14326;50.794;6.060;2023-05-19T16:14:46;11.13;;;2.47;;
26718;SDS011;14326;50.794;6.060;2023-05-19T16:17:13;11.98;;;2.75;;
26718;SDS011;14326;50.794;6.060;2023-05-19T16:20:08;10.30;;;2.55;;
26718;SDS011;14326;50.794;6.060;2023-05-19T16:23:03;12.40;;;2.67;;
26718;SDS011;14326;50.794;6.060;2023-05-19T16:26:00;17.83;;;4.75;;
26718;SDS011;14326;50.794;6.060;2023-05-19T16:28:33;21.05;;;3.20;;
26718;SDS011;14326;50.794;6.060;2023-05-19T16:30:59;15.63;;;3.38;;
26718;SDS011;14326;50.794;6.060;2023-05-19T16:33:34;10.05;;;2.50;;
26718;SDS011;14326;50.794;6.060;2023-05-19T16:36:22;13.60;;;2.50;;
26718;SDS011;14326;50.794;6.060;2023-05-19T16:39:02;16.90;;;2.58;;
26718;SDS011;14326;50.794;6.060;2023-05-19T16:41:41;9.18;;;2.40;;
26718;SDS011;14326;50.794;6.060;2023-05-19T16:44:07;13.20;;;2.72;;
26718;SDS011;14326;50.794;6.060;2023-05-19T16:46:35;14.65;;;2.35;;
26718;SDS011;14326;50.794;6.060;2023-05-19T16:52:15;11.73;;;2.42;;
26718;SDS011;14326;50.794;6.060;2023-05-19T16:54:51;11.90;;;2.60;;
26718;SDS011;14326;50.794;6.060;2023-05-19T17:00:21;12.27;;;2.50;;
26718;SDS011;14326;50.794;6.060;2023-05-19T17:02:52;12.73;;;2.40;;
26718;SDS011;14326;50.794;6.060;2023-05-19T17:05:18;10.63;;;2.70;;
26718;SDS011;14326;50.794;6.060;2023-05-19T17:07:45;15.55;;;2.47;;
26718;SDS011;14326;50.794;6.060;2023-05-19T17:10:16;15.57;;;3.38;;
26718;SDS011;14326;50.794;6.060;2023-05-19T17:12:50;9.07;;;2.55;;
26718;SDS011;14326;50.794;6.060;2023-05-19T17:15:25;13.52;;;2.47;;
26718;SDS011;14326;50.794;6.060;2023-05-19T17:17:52;18.33;;;2.70;;
26718;SDS011;14326;50.794;6.060;2023-05-19T17:20:18;14.45;;;2.75;;